Terminal Aerodrome Forecast
Issued by NWS Nashville, TN

Home | Current Version | Previous Version | Text Only | Print | Product List | Glossary On
Versions: 1 2 3 4 5 6 7 8 9 10 11 12 13 14 15 16 17 18 19 20
000
FTUS44 KOHX 251200 CCA
TAFBNA
TAF COR
KBNA 251201Z 2512/2612 19010KT P6SM -SHRA VCTS BKN009 OVC015CB
     FM251500 21012G23KT P6SM BKN025 BKN035
     FM251800 23012G25KT P6SM SCT035
     FM260100 24010G18KT P6SM VCTS BKN050CB
     FM260600 27010KT P6SM BKN010 OVC020=

USA.gov is the U.S. government's official web portal to all federal, state and local government web resources and services.